Jerico, Iowa
Current Conditions -  °F | °C
As of 10:55 AM on Friday 24 Oct 2014 (Local Time) from KCCY Reporting Station
Moderate Fog Moderate Fog  
Wind Chill: 52°   Ceiling: 300
Heat Index: 52°   Visibility: 0mi
Dew Point: 52°   Wind: 12mph
Humidity: 100%   Direction: 160°SSE
Pressure: 29.95"   Gusts: 17mph
Location:  43.0559°N, 92.3113°W
Report Text: KCCY 241555Z AUTO 16010G15KT M1/4SM FG OVC003 11/11 A2995 RMK AO2
Loading
Personal Weather Stations






























Interactive Weather Map
Tropical Storm Tracking
New forecast layout! Learn more

10-Day Weather Forecast

Advertisements
Track Severe Weather on mobile